Latest Weather Observations for Ngayawili (Elcho Island)

IDD60801

Issued at 6:31 am CST Monday 20 February 2017 (issued every 30 minutes, with the page automatically refreshed every 10 minutes)

About weather observations | Map of weather stations | Latest weather observations for NT | Other Formats
Station Details ID: 014517 Name: NGAYAWILI Lat: -12.00 Lon: 135.57 Height: 8.1 m
Data from the previous 72 hours. | See also: Recent months at Ngayawili (Elcho Island)
Date/Time
CST
Temp
°C
App
Temp
°C
Dew
Point
°C
Rel
Hum
%
Delta-T
°C
Wind Press
QNH
hPa
Press
MSL
hPa
Rain since
9am
mm
Dir  Spd
km/h
Gust
km/h
Spd
kts
Gust
kts
20/06:30am 26.4 27.2 22.5 79 2.6 WSW 22 26 12 14 1005.9 1005.8 15.6
20/06:00am 26.4 25.8 22.0 77 3.0 WSW 28 32 15 17 1005.4 1005.3 15.6
20/05:30am 26.3 25.4 22.2 78 2.8 WSW 30 35 16 19 1005.3 1005.2 15.6
20/05:00am 26.2 25.0 22.7 81 2.4 WSW 33 41 18 22 1005.4 1005.3 15.6
20/04:30am 26.2 25.1 22.5 80 2.5 WSW 32 37 17 20 1004.9 1004.8 15.6
20/04:00am 26.0 26.3 22.9 83 2.1 WSW 26 32 14 17 1005.2 1005.1 15.6
20/03:30am 25.7 25.8 22.6 83 2.1 WSW 26 33 14 18 1005.6 1005.5 15.6
20/03:00am 25.7 26.6 23.4 87 1.6 WSW 24 28 13 15 1005.9 1005.8 15.6
20/02:30am 25.6 27.1 23.1 86 1.7 SW 20 28 11 15 1005.5 1005.4 15.6
20/02:00am 25.9 26.8 23.4 86 1.7 WSW 24 28 13 15 1006.2 1006.1 15.6
20/01:30am 25.9 26.8 23.4 86 1.7 WSW 24 30 13 16 1006.3 1006.2 15.6
20/01:00am 25.8 27.7 23.7 88 1.4 WSW 20 26 11 14 1006.3 1006.2 15.6
20/12:30am 25.9 27.2 24.1 90 1.2 W 24 30 13 16 1006.7 1006.6 15.6
20/12:00am 25.9 27.9 24.5 92 1.0 WSW 22 28 12 15 1006.9 1006.8 15.4
 
Date/Time
CST
Temp
°C
App
Temp
°C
Dew
Point
°C
Rel
Hum
%
Delta-T
°C
Wind Press
QNH
hPa
Press
MSL
hPa
Rain since
9am
mm
Dir  Spd
km/h
Gust
km/h
Spd
kts
Gust
kts
19/11:30pm 25.6 26.5 24.0 91 1.1 WSW 26 32 14 17 1006.8 1006.7 14.8
19/11:00pm 25.7 26.8 24.3 92 1.0 SW 26 32 14 17 1006.5 1006.4 13.6
19/10:30pm 25.7 26.3 24.1 91 1.1 WSW 28 33 15 18 1006.8 1006.7 12.0
19/10:00pm 26.1 27.6 24.9 93 0.8 WSW 26 30 14 16 1006.7 1006.6 10.8
19/09:30pm 26.1 27.9 24.9 93 0.8 WSW 24 28 13 15 1006.5 1006.4 9.6
19/09:00pm 25.6 27.8 24.2 92 1.0 SW 20 26 11 14 1006.4 1006.3 9.4
19/08:30pm 25.3 27.4 24.1 93 0.8 SW 20 28 11 15 1006.1 1006.0 9.4
19/08:00pm 25.2 26.7 24.3 95 0.6 SW 24 33 13 18 1005.7 1005.6 8.8
19/07:30pm 25.2 25.9 24.3 95 0.6 SW 28 35 15 19 1005.6 1005.5 8.0
19/07:00pm 25.3 24.7 24.3 94 0.7 SW 35 50 19 27 1005.0 1004.9 6.8
19/06:47pm 26.9 23.9 23.2 80 2.5 W 44 61 24 33 1004.5 1004.4 5.2
19/06:30pm 28.6 27.6 25.6 84 2.1 WNW 41 48 22 26 1004.2 1004.1 5.2
19/06:00pm 28.6 27.4 25.2 82 2.4 WNW 41 50 22 27 1003.9 1003.8 5.2
19/05:30pm 28.6 27.5 25.4 83 2.3 WNW 41 50 22 27 1003.7 1003.6 5.2
19/05:00pm 28.7 27.0 25.1 81 2.5 WNW 43 52 23 28 1003.8 1003.7 5.2
19/04:30pm 28.7 27.0 25.3 82 2.4 WNW 44 54 24 29 1003.6 1003.5 5.2
19/04:00pm 28.7 26.2 25.3 82 2.4 WNW 48 57 26 31 1003.3 1003.2 5.2
19/03:30pm 28.4 26.0 24.8 81 2.5 WNW 46 56 25 30 1003.6 1003.5 5.2
19/03:00pm 28.2 26.4 25.2 84 2.1 WNW 44 54 24 29 1003.7 1003.6 5.2
19/02:30pm 28.1 27.2 25.7 87 1.7 WNW 41 48 22 26 1004.4 1004.3 5.2
19/02:00pm 28.1 26.2 24.7 82 2.4 WNW 43 50 23 27 1004.8 1004.7 5.2
19/01:30pm 27.8 28.2 26.0 90 1.3 WNW 35 43 19 23 1005.1 1005.0 5.2
19/01:00pm 27.6 25.5 24.6 84 2.1 W 44 56 24 30 1005.4 1005.3 5.2
19/12:30pm 27.6 26.3 25.6 89 1.4 WNW 43 56 23 30 1005.5 1005.4 1.8
19/12:00pm 27.9 25.8 25.3 86 1.8 WNW 46 57 25 31 1006.2 1006.1 1.8
19/11:30am 28.0 25.8 25.2 85 2.0 WNW 46 57 25 31 1006.6 1006.5 1.8
19/11:00am 27.0 24.2 25.4 91 1.1 WNW 50 59 27 32 1006.6 1006.5 1.8
19/10:42am 26.8 25.3 25.4 92 1.0 W 43 61 23 33 1006.5 1006.4 1.6
19/10:30am 26.9 27.7 25.7 93 0.8 WSW 32 43 17 23 1006.9 1006.8 1.2
19/10:00am 26.6 28.7 25.4 93 0.8 W 24 30 13 16 1007.1 1007.0 0.2
19/09:30am 27.0 28.0 24.8 88 1.5 W 28 35 15 19 1007.3 1007.2 0.0
19/09:00am 27.4 28.7 25.2 88 1.5 WNW 28 33 15 18 1007.7 1007.6 10.6
19/08:30am 26.8 26.7 24.3 86 1.7 W 32 37 17 20 1007.9 1007.8 10.6
19/08:00am 27.2 28.0 24.5 85 1.9 WNW 28 32 15 17 1007.7 1007.6 10.4
19/07:30am 26.7 28.7 25.1 91 1.1 NW 24 33 13 18 1007.7 1007.6 10.4
19/07:00am 27.4 29.4 25.2 88 1.5 NW 24 30 13 16 1006.9 1006.8 9.2
19/06:30am 27.1 29.6 25.3 90 1.3 NW 22 28 12 15 1006.5 1006.4 9.2
19/06:00am 27.0 28.1 25.0 89 1.4 NNW 28 32 15 17 1005.7 1005.6 9.2
19/05:30am 26.8 29.5 24.1 85 1.9 NNW 17 20 9 11 1004.9 1004.8 9.2
19/05:00am 26.5 28.4 23.8 85 1.9 NW 20 24 11 13 1004.9 1004.8 9.2
19/04:30am 25.9 28.8 23.2 85 1.8 NW 13 17 7 9 1004.7 1004.6 9.2
19/04:00am 25.4 29.4 23.1 87 1.6 WNW 7 11 4 6 1004.7 1004.6 9.2
19/03:30am 25.3 28.0 23.4 89 1.3 WSW 15 17 8 9 1004.8 1004.7 9.2
19/03:00am 25.1 27.2 24.1 94 0.7 SW 20 24 11 13 1005.5 1005.4 9.2
19/02:30am 25.0 28.4 24.1 95 0.6 S 13 17 7 9 1006.1 1006.0 9.2
19/02:00am 25.0 26.8 24.3 96 0.5 SW 22 28 12 15 1007.3 1007.2 8.6
19/01:30am 24.7 27.4 24.2 97 0.3 SSW 17 26 9 14 1007.1 1007.0 8.4
19/01:00am 25.5 23.2 24.1 92 1.0 SW 43 63 23 34 1007.2 1007.1 1.8
19/12:55am 25.9 23.0 23.4 86 1.7 W 44 63 24 34 1007.3 1007.2 0.6
19/12:53am 26.7 24.3 24.2 86 1.7 WNW 44 63 24 34 1007.3 1007.2 0.6
19/12:51am 28.2 27.1 26.0 88 1.6 WNW 43 63 23 34 1007.0 1006.9 0.6
19/12:30am 29.0 28.8 26.2 85 2.0 WNW 39 46 21 25 1007.3 1007.2 0.0
19/12:00am 29.2 29.2 26.4 85 2.0 WNW 39 46 21 25 1007.8 1007.7 0.0
 
Date/Time
CST
Temp
°C
App
Temp
°C
Dew
Point
°C
Rel
Hum
%
Delta-T
°C
Wind Press
QNH
hPa
Press
MSL
hPa
Rain since
9am
mm
Dir  Spd
km/h
Gust
km/h
Spd
kts
Gust
kts
18/11:30pm 29.0 28.2 25.8 83 2.3 WNW 41 50 22 27 1008.0 1007.9 0.0
18/11:00pm 29.0 27.2 25.2 80 2.7 NW 44 52 24 28 1007.5 1007.4 0.0
18/10:30pm 29.2 28.4 25.8 82 2.4 NW 41 46 22 25 1007.7 1007.6 0.0
18/10:00pm 29.1 27.7 25.5 81 2.5 NW 43 50 23 27 1007.5 1007.4 0.0
18/09:30pm 28.8 28.2 25.6 83 2.3 NW 39 44 21 24 1007.2 1007.1 0.0
18/09:00pm 29.1 29.5 25.9 83 2.3 NW 35 43 19 23 1007.3 1007.2 0.0
18/08:30pm 29.2 28.2 25.0 78 3.0 NW 39 46 21 25 1007.1 1007.0 0.0
18/08:00pm 29.0 28.2 24.6 77 3.1 NW 37 44 20 24 1006.5 1006.4 0.0
18/07:30pm 29.1 28.8 25.5 81 2.5 NW 37 44 20 24 1006.3 1006.2 0.0
18/07:00pm 29.2 28.4 25.2 79 2.8 NW 39 44 21 24 1006.3 1006.2 0.0
18/06:30pm 29.2 28.8 25.2 79 2.8 NW 37 46 20 25 1006.1 1006.0 0.0
18/06:00pm 29.2 28.8 25.2 79 2.8 NW 37 43 20 23 1005.9 1005.8 0.0
18/05:30pm 29.5 28.5 25.0 77 3.2 NW 39 44 21 24 1005.8 1005.7 0.0
18/05:00pm 29.9 28.9 25.0 75 3.4 NW 39 46 21 25 1005.7 1005.6 0.0
18/04:30pm 30.4 30.1 25.5 75 3.5 NW 37 43 20 23 1005.6 1005.5 0.0
18/04:00pm 30.2 29.9 24.8 73 3.8 NW 35 43 19 23 1005.8 1005.7 0.0
18/03:30pm 30.5 31.2 25.8 76 3.3 NW 33 39 18 21 1006.3 1006.2 0.0
18/03:00pm 30.8 31.7 25.8 74 3.6 WNW 32 39 17 21 1006.7 1006.6 0.0
18/02:30pm 30.0 30.6 25.7 78 3.1 NW 33 39 18 21 1007.2 1007.1 0.0
18/02:00pm 30.4 30.6 25.0 73 3.8 WNW 33 41 18 22 1007.5 1007.4 0.0
18/01:30pm 30.2 30.7 25.5 76 3.3 WNW 33 39 18 21 1007.9 1007.8 0.0
18/01:00pm 29.8 30.8 26.0 80 2.7 WNW 32 39 17 21 1008.3 1008.2 0.0
18/12:30pm 30.4 31.5 26.1 78 3.1 WNW 32 35 17 19 1008.5 1008.4 0.0
18/12:00pm 30.0 30.3 25.7 78 3.1 WNW 35 43 19 23 1009.0 1008.9 0.0
18/11:30am 29.2 30.0 25.6 81 2.5 WNW 32 39 17 21 1009.3 1009.2 0.0
18/11:00am 29.1 29.6 25.5 81 2.5 WNW 33 39 18 21 1009.3 1009.2 0.0
18/10:30am 29.3 29.9 25.7 81 2.6 WNW 33 43 18 23 1009.4 1009.3 0.0
18/10:00am 28.5 28.8 24.9 81 2.5 WNW 32 37 17 20 1009.6 1009.5 0.0
18/09:30am 28.2 27.8 24.6 81 2.5 W 35 41 19 22 1009.6 1009.5 0.0
18/09:00am 28.1 28.3 24.7 82 2.4 W 32 43 17 23 1009.8 1009.7 0.6
18/08:30am 28.0 28.4 24.4 81 2.5 W 30 37 16 20 1009.8 1009.7 0.6
18/08:00am 28.2 27.5 24.2 79 2.8 W 35 43 19 23 1009.6 1009.5 0.6
18/07:30am 28.3 28.1 24.1 78 2.9 WSW 32 37 17 20 1009.0 1008.9 0.6
18/07:00am 28.3 29.8 25.5 85 2.0 W 28 32 15 17 1008.6 1008.5 0.6
18/06:30am 28.6 30.0 26.6 89 1.4 WNW 32 39 17 21 1008.5 1008.4 0.6
18/06:00am 28.4 28.8 26.0 87 1.7 WNW 35 39 19 21 1007.9 1007.8 0.6
18/05:30am 28.8 29.0 25.6 83 2.3 WNW 35 43 19 23 1007.6 1007.5 0.0
18/05:00am 28.8 29.4 25.4 82 2.4 WNW 32 39 17 21 1007.2 1007.1 0.0
18/04:30am 28.7 29.4 25.5 83 2.3 WNW 32 35 17 19 1007.2 1007.1 0.0
18/04:00am 28.8 30.2 26.0 85 2.0 WNW 30 35 16 19 1007.1 1007.0 0.0
18/03:30am 28.9 30.1 26.3 86 1.9 WNW 32 39 17 21 1007.0 1006.9 0.0
18/03:00am 28.7 29.1 25.9 85 2.0 WNW 35 41 19 22 1007.2 1007.1 0.0
18/02:30am 28.8 30.7 26.2 86 1.9 WNW 28 33 15 18 1007.5 1007.4 0.0
18/02:00am 28.9 30.1 26.3 86 1.9 WNW 32 39 17 21 1007.9 1007.8 0.0
18/01:30am 28.8 31.0 26.6 88 1.6 WNW 28 33 15 18 1008.7 1008.6 0.0
18/01:00am 28.9 31.1 26.7 88 1.6 WNW 28 33 15 18 1009.0 1008.9 0.0
18/12:30am 28.9 30.0 26.1 85 2.0 WNW 32 35 17 19 1009.1 1009.0 0.0
18/12:00am 28.8 30.2 26.0 85 2.0 WNW 30 35 16 19 1009.4 1009.3 0.0
 
Date/Time
CST
Temp
°C
App
Temp
°C
Dew
Point
°C
Rel
Hum
%
Delta-T
°C
Wind Press
QNH
hPa
Press
MSL
hPa
Rain since
9am
mm
Dir  Spd
km/h
Gust
km/h
Spd
kts
Gust
kts
17/11:30pm 29.0 30.5 26.2 85 2.0 WNW 30 35 16 19 1009.6 1009.5 0.0
17/11:00pm 28.9 30.4 26.1 85 2.0 WNW 30 35 16 19 1009.6 1009.5 0.0
17/10:30pm 29.0 30.5 26.2 85 2.0 WNW 30 35 16 19 1009.5 1009.4 0.0
17/10:00pm 29.2 31.4 26.6 86 1.9 WNW 28 33 15 18 1009.4 1009.3 0.0
17/09:30pm 28.9 30.6 25.9 84 2.1 WNW 28 33 15 18 1009.0 1008.9 0.0
17/09:00pm 28.6 31.5 26.0 86 1.8 WNW 22 26 12 14 1008.4 1008.3 0.0
17/08:30pm 28.1 30.6 24.5 81 2.5 WNW 19 24 10 13 1008.2 1008.1 0.0
17/08:00pm 28.7 32.8 26.3 87 1.7 NW 17 20 9 11 1007.9 1007.8 0.0
17/07:30pm 28.4 33.2 26.2 88 1.6 NW 13 19 7 10 1007.8 1007.7 0.0
17/07:00pm 28.4 32.8 25.6 85 2.0 NW 13 17 7 9 1007.4 1007.3 0.0
17/06:30pm 28.7 32.9 25.3 82 2.4 NW 13 15 7 8 1007.5 1007.4 0.0
17/06:00pm 28.7 33.0 25.5 83 2.3 NW 13 15 7 8 1007.0 1006.9 0.0
17/05:30pm 28.7 33.0 24.9 80 2.7 WNW 11 13 6 7 1007.5 1007.4 0.0
17/05:00pm 28.8 32.5 24.6 78 2.9 WNW 13 15 7 8 1007.6 1007.5 0.0
17/04:30pm 28.5 31.6 23.6 75 3.4 W 13 17 7 9 1007.8 1007.7 0.0
17/04:00pm 28.4 31.9 23.5 75 3.4 W 11 15 6 8 1007.8 1007.7 0.0
17/03:30pm 27.8 31.1 23.2 76 3.1 WSW 11 15 6 8 1007.8 1007.7 0.0
17/03:00pm 27.9 31.0 23.5 77 3.0 WSW 13 17 7 9 1008.1 1008.0 0.0
17/02:30pm 28.1 31.2 23.5 76 3.2 WSW 13 15 7 8 1008.2 1008.1 0.0
17/02:00pm 28.2 32.3 23.3 75 3.4 SW 7 9 4 5 1008.6 1008.5 0.0
17/01:30pm 28.6 31.8 23.7 75 3.4 SSW 13 19 7 10 1008.8 1008.7 0.0
17/01:00pm 28.5 30.0 22.7 71 3.9 SW 19 22 10 12 1009.3 1009.2 0.0
17/12:30pm 29.4 31.4 23.6 71 4.0 SSW 19 26 10 14 1009.7 1009.6 0.0
17/12:00pm 29.6 31.5 23.8 71 4.0 SSW 20 26 11 14 1010.1 1010.0 0.0
17/11:30am 30.1 32.1 24.0 70 4.2 SW 20 28 11 15 1010.5 1010.4 0.0
17/11:00am 29.3 30.6 24.0 73 3.7 WSW 24 30 13 16 1010.8 1010.7 0.0
17/10:30am 28.8 29.3 23.9 75 3.4 WSW 28 33 15 18 1011.0 1010.9 0.0
17/10:00am 28.9 30.5 24.5 77 3.1 WSW 24 28 13 15 1010.8 1010.7 0.0
17/09:30am 28.4 30.3 23.8 76 3.2 WSW 20 26 11 14 1010.8 1010.7 0.0
17/09:00am 27.8 29.5 23.0 75 3.3 W 19 22 10 12 1010.5 1010.4 4.4
17/08:30am 27.7 29.3 24.5 83 2.2 WSW 24 30 13 16 1010.2 1010.1 4.4
17/08:00am 27.5 30.1 24.9 86 1.8 W 20 24 11 13 1009.4 1009.3 4.4
17/07:30am 27.1 30.5 25.3 90 1.3 W 17 20 9 11 1008.7 1008.6 4.4
17/07:00am 25.7 31.7 24.8 95 0.6 S 2 7 1 4 1008.3 1008.2 4.4

Other Formats:

Comma delimited format used in spreadsheet applications
http://www.bom.gov.au/fwo/IDD60801/IDD60801.95146.axf

JavaScript Object Notation format (JSON) in row-major order
http://www.bom.gov.au/fwo/IDD60801/IDD60801.95146.json